Etusivu
METAR-TAF:

METAR-TAF

Lentoasemat :

Clinton Municipal Airport

Clinton, Iowa, Yhdysvallat

Leveyspiiri: 41-50N, Pituuspiiri: 090-20W, korkeus merenpinnasta: 216 m

Tämänhetkinen sää

Tämä raportti tehtiin 25 minuuttia sitten, kello 01.56 UTC
Tuuli 3 kn etelästä/lounaasta
Lämpötila -2°C
Kosteus 74%
Ilmanpaine 1018 hPa
Näkyvyys: 16.1 km
Pilvistä 3800 ft:n korkeudessa
heikkoa lumisadetta

METAR: KCWI 140156Z AUTO 21003KT 10SM -SN OVC038 M02/M06 A3006 RMK AO2 UPB45E50SNE09B50 SLP194 P0000 T10221061 FZRANO

Aika: 20:21 (02:21 UTC)


TAF: puuttuu

Säähavainnot ja -ennusteet yli 4000 lentoasemalta (METAR- ja TAF-raportit).

Käytössä olevat sääasemat on merkitty karttaan keltaisilla ja punaisilla pisteillä.

Aseta hiiri pisteen päälle nähdäksesi sääaseman nimen.

Klikkaa sitten nähdäksesi säähavainnot ja -ennusteet.

Kartan vaihtaminen: klikkaa mustalla rastilla varustettuja vihreitä pisteitä, niin voit zoomata sisään; viivalla varustettua vihreää pistettä, niin voit zoomata ulos tai vihreitä nuolia, niin pääset viereisille kartoille.


METAR-TAF: